Airfield :
LOGIN :

Register | Disclaimer

   EN    FR    IT 

 










Legend :    VFR   Marginal VFR   IFR   Intensive IFR   Very Intensive IFR
Visi :
Ceiling :
>= 8 km
>= 3000ft
5 to 8 km
1000 to 3000 ft
1500m to 5 km
500 to 1000 ft
800 to 1500m
200 to 500 ft
< 800m
< 200 ft
Symbols :   Thunderstorms  Fog  Heavy snow  Heavy precipitations  Wind > 20 kt
SIGMETs :     Misc.  Thunderstorms  Icing  Turbulence  Mountain Waves  Volcanic Ashes






- Airport Elevation : 157 ft
- IATA code : LIL


LFQQ - Lille Lesquin

CURRENT METAR :
  • 232300Z AUTO 12004KT 090V150 2500 BR OVC002 02/02 Q1026 BECMG VV///

EXPIRED METARs :
  • 232230Z AUTO 11005KT 2600 BR OVC002 02/02 Q1026 BECMG VV///
  • 232200Z AUTO 09003KT 050V130 1700 BR VV/// 02/02 Q1026 NOSIG
  • 232130Z AUTO 06006KT 1000 0750 R26/1800U R08/1100D BCFG VV/// 02/02 Q1026 TEMPO 2000 BR
  • 232100Z AUTO 07005KT 040V100 0750 0700 R26/0900D R08/0800D FG VV/// 02/02 Q1026 TEMPO 2000 BR OVC003
  • 232030Z AUTO 10005KT 0800 0700 R26/1100U R08/0900N FG VV/// 02/02 Q1026 TEMPO 2000 BR OVC003

TAF AMD TAF LFQQ
Valid from the 23 at 20:00 until the 25 at 00:00 UTC


232044Z 2320/2424 06007KT 0300 FG VV///
TEMPO 2320/2424 2000 BR OVC003
PROB30 2413/2417 6000 NSW BKN007
ATIS : +33 3 20 16 19 54



MET'MAP, your aeronautical weather chart ! - Copyright ORBIFLY December 2007 - Disclaimer

ORBIFLY MET'MAP TEAM :

Programming & Development : Alexandra Zaïnal
Concept & original design : Baudouin d'Aumeries
Assistance for programming : Marc-Olivier Méhu
Technical & hardware support : Manuel Goepfert

Contact : metmap@orbifly.com




SOURCES & CREDITS :

   NOAA